Time;durP1;ratioP1;P1;durP2;ratioP2;P2;SDS_P1;SDS_P2;PMS_P1;PMS_P2;Temp;Humidity;BMP_temperature;BMP_pressure;BME280_temperature;BME280_humidity;BME280_pressure;Samples;Min_cycle;Max_cycle;Signal;HPM_P1;HPM_P2
2023/05/10 00:00:10;;;;;;;1.00;0.90;;;;;;;;;;5035175;28;20498;-79
2023/05/10 00:02:46;;;;;;;1.25;1.15;;;;;;;;;;5030523;28;20476;-79
2023/05/10 00:05:13;;;;;;;3.20;0.98;;;;;;;;;;5025912;28;20022;-79
2023/05/10 00:07:39;;;;;;;1.35;0.98;;;;;;;;;;5023875;28;20038;-79
2023/05/10 00:10:05;;;;;;;1.88;1.10;;;;;;;;;;5036068;28;20487;-79
2023/05/10 00:12:38;;;;;;;1.38;1.05;;;;;;;;;;5018484;28;20483;-79
2023/05/10 00:15:05;;;;;;;1.23;1.10;;;;;;;;;;5022940;28;20025;-79
2023/05/10 00:17:31;;;;;;;1.27;1.15;;;;;;;;;;5027279;28;20103;-79
2023/05/10 00:19:57;;;;;;;1.33;1.00;;;;;;;;;;5026854;28;20485;-79
2023/05/10 00:22:29;;;;;;;2.08;1.30;;;;;;;;;;5029644;28;20523;-79
2023/05/10 00:24:58;;;;;;;1.25;1.13;;;;;;;;;;5027190;28;20022;-79
2023/05/10 00:27:25;;;;;;;0.93;0.80;;;;;;;;;;5025428;28;20029;-79
2023/05/10 00:29:54;;;;;;;1.17;1.00;;;;;;;;;;5028787;28;20120;-79
2023/05/10 00:32:20;;;;;;;1.10;1.00;;;;;;;;;;5025996;28;20037;-79
2023/05/10 00:34:46;;;;;;;2.20;1.20;;;;;;;;;;5024329;28;20025;-79
2023/05/10 00:37:15;;;;;;;1.77;1.08;;;;;;;;;;5015402;28;20030;-79
2023/05/10 00:39:41;;;;;;;1.83;1.05;;;;;;;;;;5021654;28;20025;-79
2023/05/10 00:42:13;;;;;;;1.85;1.27;;;;;;;;;;5028793;28;20120;-79
2023/05/10 00:44:42;;;;;;;1.50;1.25;;;;;;;;;;5025193;28;20014;-79
2023/05/10 00:47:08;;;;;;;1.25;1.10;;;;;;;;;;5027363;28;20040;-79
2023/05/10 00:49:38;;;;;;;1.20;1.10;;;;;;;;;;5021387;28;20029;-79
2023/05/10 00:52:09;;;;;;;1.50;1.20;;;;;;;;;;5023760;28;20034;-79
2023/05/10 00:54:35;;;;;;;2.05;1.30;;;;;;;;;;5016505;28;20038;-79
2023/05/10 00:57:01;;;;;;;1.55;0.90;;;;;;;;;;5021893;28;20115;-78
2023/05/10 00:59:27;;;;;;;1.67;1.27;;;;;;;;;;5026458;28;20037;-79
2023/05/10 01:01:53;;;;;;;1.95;1.33;;;;;;;;;;5027783;28;20028;-79
2023/05/10 01:04:21;;;;;;;1.08;0.98;;;;;;;;;;5024500;28;20036;-79
2023/05/10 01:06:47;;;;;;;2.00;1.20;;;;;;;;;;5015335;28;20037;-79
2023/05/10 01:09:13;;;;;;;1.20;1.10;;;;;;;;;;5011199;28;20029;-79
2023/05/10 01:11:40;;;;;;;1.73;1.17;;;;;;;;;;5021167;28;20037;-79
2023/05/10 01:14:06;;;;;;;1.45;1.10;;;;;;;;;;5027925;28;20540;-79
2023/05/10 01:16:34;;;;;;;0.93;0.90;;;;;;;;;;5026497;28;20443;-79
2023/05/10 01:19:00;;;;;;;1.58;1.40;;;;;;;;;;5027680;28;20029;-79
2023/05/10 01:21:38;;;;;;;1.70;1.13;;;;;;;;;;5027374;28;20056;-79
2023/05/10 01:24:24;;;;;;;1.88;1.20;;;;;;;;;;5026490;28;20067;-79
2023/05/10 01:26:59;;;;;;;1.67;1.08;;;;;;;;;;5011861;28;20180;-79
2023/05/10 01:29:37;;;;;;;2.33;1.25;;;;;;;;;;5020544;28;20034;-78
2023/05/10 01:32:22;;;;;;;2.13;1.30;;;;;;;;;;5027310;28;20033;-79
2023/05/10 01:35:11;;;;;;;0.95;0.93;;;;;;;;;;5022228;28;20033;-79
2023/05/10 01:37:47;;;;;;;3.83;1.55;;;;;;;;;;5024899;28;20053;-79
2023/05/10 01:40:20;;;;;;;1.50;1.33;;;;;;;;;;5024638;28;20048;-79
2023/05/10 01:43:00;;;;;;;1.42;1.00;;;;;;;;;;5010680;28;20034;-79
2023/05/10 01:45:32;;;;;;;1.88;1.40;;;;;;;;;;5022113;28;20080;-78
2023/05/10 01:48:02;;;;;;;0.82;0.77;;;;;;;;;;5022659;28;20064;-79
2023/05/10 01:50:30;;;;;;;1.15;0.95;;;;;;;;;;5028491;28;20087;-79
2023/05/10 01:52:58;;;;;;;1.05;1.00;;;;;;;;;;5021322;28;20112;-79
2023/05/10 01:55:25;;;;;;;1.90;1.17;;;;;;;;;;5026740;28;20080;-79
2023/05/10 01:57:53;;;;;;;1.48;1.35;;;;;;;;;;5023171;28;20534;-78
2023/05/10 02:00:22;;;;;;;1.80;1.30;;;;;;;;;;5016000;28;20073;-78
2023/05/10 02:02:51;;;;;;;2.10;1.27;;;;;;;;;;5019286;28;20025;-79
2023/05/10 02:05:18;;;;;;;1.23;1.00;;;;;;;;;;5018885;28;20079;-79
2023/05/10 02:07:44;;;;;;;1.58;1.30;;;;;;;;;;5024305;28;20025;-79
2023/05/10 02:10:11;;;;;;;1.30;1.20;;;;;;;;;;5033677;28;20138;-79
2023/05/10 02:12:38;;;;;;;2.47;1.70;;;;;;;;;;5029994;28;20200;-79
2023/05/10 02:15:05;;;;;;;2.85;1.15;;;;;;;;;;5026569;28;20034;-79
2023/05/10 02:17:32;;;;;;;2.60;1.35;;;;;;;;;;5024140;28;20072;-78
2023/05/10 02:19:59;;;;;;;1.98;1.27;;;;;;;;;;5022650;28;20546;-78
2023/05/10 02:22:27;;;;;;;1.88;1.15;;;;;;;;;;5027062;28;20105;-78
2023/05/10 02:24:57;;;;;;;2.58;1.30;;;;;;;;;;5026327;28;20029;-79
2023/05/10 02:27:24;;;;;;;2.38;1.58;;;;;;;;;;5025039;28;20060;-79
2023/05/10 02:29:51;;;;;;;1.77;1.20;;;;;;;;;;5016944;28;20033;-79
2023/05/10 02:32:17;;;;;;;2.63;1.08;;;;;;;;;;5025606;28;20033;-79
2023/05/10 02:34:45;;;;;;;1.00;0.90;;;;;;;;;;5025509;28;20026;-79
2023/05/10 02:37:11;;;;;;;1.95;1.30;;;;;;;;;;5015319;28;20022;-79
2023/05/10 02:39:40;;;;;;;0.85;0.82;;;;;;;;;;5026171;28;20025;-78
2023/05/10 02:42:06;;;;;;;1.80;1.30;;;;;;;;;;5029541;28;20032;-78
2023/05/10 02:44:34;;;;;;;2.42;1.13;;;;;;;;;;5028926;28;20113;-78
2023/05/10 02:47:00;;;;;;;1.95;1.30;;;;;;;;;;5028259;28;20053;-78
2023/05/10 02:49:26;;;;;;;1.70;1.20;;;;;;;;;;5026204;28;20113;-78
2023/05/10 02:51:54;;;;;;;2.33;0.90;;;;;;;;;;5027410;28;20030;-78
2023/05/10 02:54:25;;;;;;;1.73;1.50;;;;;;;;;;5025909;28;20037;-79
2023/05/10 02:56:54;;;;;;;1.45;1.25;;;;;;;;;;5025723;28;20435;-78
2023/05/10 02:59:20;;;;;;;1.58;1.35;;;;;;;;;;5028695;28;20127;-78
2023/05/10 03:01:46;;;;;;;3.35;1.95;;;;;;;;;;5029341;28;20762;-78
2023/05/10 03:04:13;;;;;;;1.92;1.10;;;;;;;;;;5028830;28;20013;-78
2023/05/10 03:06:39;;;;;;;1.45;1.10;;;;;;;;;;5026624;28;20128;-78
2023/05/10 03:09:05;;;;;;;1.83;1.08;;;;;;;;;;5029919;28;20034;-78
2023/05/10 03:11:48;;;;;;;3.30;1.45;;;;;;;;;;5032232;28;20097;-78
2023/05/10 03:14:37;;;;;;;1.25;1.10;;;;;;;;;;5026412;28;20082;-79
2023/05/10 03:17:17;;;;;;;1.13;0.98;;;;;;;;;;5028541;28;20045;-78
2023/05/10 03:19:59;;;;;;;1.48;1.10;;;;;;;;;;5026551;28;20274;-78
2023/05/10 03:22:37;;;;;;;1.98;1.20;;;;;;;;;;5027513;28;20021;-78
2023/05/10 03:25:06;;;;;;;1.10;1.00;;;;;;;;;;5020045;28;20034;-78
2023/05/10 03:27:32;;;;;;;0.98;0.88;;;;;;;;;;5027396;28;20037;-77
2023/05/10 03:29:59;;;;;;;2.03;1.30;;;;;;;;;;5027973;28;20120;-78
2023/05/10 03:32:26;;;;;;;1.48;1.15;;;;;;;;;;5029997;28;20444;-78
2023/05/10 03:34:52;;;;;;;2.95;2.00;;;;;;;;;;5028652;28;20021;-77
2023/05/10 03:37:18;;;;;;;2.25;1.08;;;;;;;;;;5027081;28;20034;-77
2023/05/10 03:39:44;;;;;;;2.97;1.30;;;;;;;;;;5028640;28;20032;-77
2023/05/10 03:42:11;;;;;;;1.42;1.00;;;;;;;;;;5024512;28;20022;-77
2023/05/10 03:44:38;;;;;;;2.47;1.60;;;;;;;;;;5026867;28;20033;-78
2023/05/10 03:47:04;;;;;;;1.88;1.23;;;;;;;;;;5027028;28;20033;-77
2023/05/10 03:49:30;;;;;;;1.10;0.90;;;;;;;;;;5027662;28;20039;-78
2023/05/10 03:51:56;;;;;;;1.55;1.00;;;;;;;;;;5027869;28;20486;-77
2023/05/10 03:54:22;;;;;;;2.40;1.27;;;;;;;;;;5027049;28;20052;-78
2023/05/10 03:56:48;;;;;;;2.05;1.10;;;;;;;;;;5015598;28;20105;-78
2023/05/10 03:59:14;;;;;;;2.13;1.20;;;;;;;;;;5021797;28;20030;-78
2023/05/10 04:01:40;;;;;;;1.80;1.05;;;;;;;;;;5028144;28;20026;-78
2023/05/10 04:04:06;;;;;;;4.10;1.20;;;;;;;;;;5019574;28;20542;-77
2023/05/10 04:06:32;;;;;;;2.63;1.40;;;;;;;;;;5025991;28;20038;-77
2023/05/10 04:09:04;;;;;;;2.38;1.05;;;;;;;;;;5025703;28;20033;-78
2023/05/10 04:11:29;;;;;;;;;;;;;;;;;;5024897;28;20035;-77
2023/05/10 04:13:55;;;;;;;1.25;1.10;;;;;;;;;;5026388;28;20383;-78
2023/05/10 04:16:21;;;;;;;1.80;1.52;;;;;;;;;;5026684;28;20033;-78
2023/05/10 04:18:48;;;;;;;1.95;1.38;;;;;;;;;;5020274;28;20082;-78
2023/05/10 04:21:14;;;;;;;2.13;1.30;;;;;;;;;;5021086;28;20024;-77
2023/05/10 04:23:41;;;;;;;1.52;1.20;;;;;;;;;;5022558;28;20034;-78
2023/05/10 04:26:07;;;;;;;2.45;1.42;;;;;;;;;;5027169;28;20025;-77
2023/05/10 04:28:33;;;;;;;1.10;0.88;;;;;;;;;;5028151;28;20033;-77
2023/05/10 04:31:03;;;;;;;1.60;1.08;;;;;;;;;;5028303;28;20032;-77
2023/05/10 04:33:29;;;;;;;0.93;0.88;;;;;;;;;;5028421;28;20029;-77
2023/05/10 04:35:55;;;;;;;1.88;1.33;;;;;;;;;;5023006;28;20056;-78
2023/05/10 04:38:21;;;;;;;1.67;1.25;;;;;;;;;;5022459;28;20038;-78
2023/05/10 04:40:47;;;;;;;2.58;1.67;;;;;;;;;;5027600;28;20037;-79
2023/05/10 04:43:13;;;;;;;1.45;1.15;;;;;;;;;;5028064;28;20025;-78
2023/05/10 04:45:39;;;;;;;2.25;1.20;;;;;;;;;;5024774;28;20083;-78
2023/05/10 04:48:05;;;;;;;1.80;1.25;;;;;;;;;;5017125;28;20116;-78
2023/05/10 04:50:31;;;;;;;1.42;1.10;;;;;;;;;;5019923;28;20472;-78
2023/05/10 04:53:00;;;;;;;1.63;1.10;;;;;;;;;;5012856;28;20049;-78
2023/05/10 04:55:26;;;;;;;1.48;1.33;;;;;;;;;;5012570;28;20629;-77
2023/05/10 04:57:52;;;;;;;2.05;1.42;;;;;;;;;;5020172;28;20103;-84
2023/05/10 05:00:19;;;;;;;1.02;0.93;;;;;;;;;;5020285;28;20061;-76
2023/05/10 05:02:45;;;;;;;2.55;1.48;;;;;;;;;;5025945;28;20028;-77
2023/05/10 05:05:12;;;;;;;1.15;1.00;;;;;;;;;;5018269;28;20022;-77
2023/05/10 05:07:38;;;;;;;1.48;1.30;;;;;;;;;;5024393;28;20033;-81
2023/05/10 05:10:05;;;;;;;1.40;1.25;;;;;;;;;;5033355;28;20029;-78
2023/05/10 05:12:31;;;;;;;2.33;1.13;;;;;;;;;;5021412;28;20466;-78
2023/05/10 05:14:57;;;;;;;1.30;1.17;;;;;;;;;;5025601;28;20033;-78
2023/05/10 05:17:23;;;;;;;2.47;1.13;;;;;;;;;;5022064;28;20073;-79
2023/05/10 05:19:49;;;;;;;1.85;1.27;;;;;;;;;;5022497;28;20099;-77
2023/05/10 05:22:15;;;;;;;1.33;1.10;;;;;;;;;;5027071;28;20026;-77
2023/05/10 05:24:42;;;;;;;1.65;1.40;;;;;;;;;;5026068;28;20022;-76
2023/05/10 05:27:07;;;;;;;2.72;1.27;;;;;;;;;;5014681;28;20026;-82
2023/05/10 05:29:34;;;;;;;1.15;1.02;;;;;;;;;;5022732;28;20033;-81
2023/05/10 05:32:00;;;;;;;2.30;1.10;;;;;;;;;;5027129;28;20388;-79
2023/05/10 05:34:26;;;;;;;2.30;1.33;;;;;;;;;;5026768;28;20029;-80
2023/05/10 05:36:52;;;;;;;2.00;1.20;;;;;;;;;;5028682;28;20033;-81
2023/05/10 05:39:18;;;;;;;1.80;1.20;;;;;;;;;;5028250;28;20025;-80
2023/05/10 05:41:44;;;;;;;1.30;1.00;;;;;;;;;;5027750;28;20056;-80
2023/05/10 05:44:10;;;;;;;1.45;1.00;;;;;;;;;;5019968;28;20022;-80
2023/05/10 05:46:36;;;;;;;2.13;1.30;;;;;;;;;;5027940;28;20020;-80
2023/05/10 05:49:02;;;;;;;0.95;0.88;;;;;;;;;;5027460;28;20499;-80
2023/05/10 05:51:28;;;;;;;1.20;1.10;;;;;;;;;;5021989;28;20025;-80
2023/05/10 05:53:54;;;;;;;1.27;1.13;;;;;;;;;;5015953;28;20022;-80
2023/05/10 05:56:24;;;;;;;1.20;1.00;;;;;;;;;;5023695;28;20036;-80
2023/05/10 05:58:50;;;;;;;1.10;1.00;;;;;;;;;;5026321;28;20626;-81
2023/05/10 06:01:16;;;;;;;1.20;1.10;;;;;;;;;;5026127;28;20043;-81
2023/05/10 06:03:42;;;;;;;1.30;1.10;;;;;;;;;;5023687;28;20025;-80
2023/05/10 06:06:08;;;;;;;3.05;1.30;;;;;;;;;;5027039;28;20091;-80
2023/05/10 06:08:34;;;;;;;1.08;0.82;;;;;;;;;;5027844;28;20057;-80
2023/05/10 06:11:01;;;;;;;0.90;0.90;;;;;;;;;;5041029;28;20051;-80
2023/05/10 06:13:31;;;;;;;1.23;1.10;;;;;;;;;;5027293;28;20117;-80
2023/05/10 06:15:58;;;;;;;1.52;1.20;;;;;;;;;;5021948;28;20456;-79
2023/05/10 06:18:24;;;;;;;1.20;1.10;;;;;;;;;;5009477;28;20056;-81
2023/05/10 06:20:51;;;;;;;1.00;0.90;;;;;;;;;;5018648;28;20068;-81
2023/05/10 06:23:17;;;;;;;1.50;0.70;;;;;;;;;;5014858;28;20018;-80
2023/05/10 06:25:43;;;;;;;1.33;1.00;;;;;;;;;;5008493;28;20087;-81
2023/05/10 06:28:09;;;;;;;1.10;1.00;;;;;;;;;;5022358;28;20045;-81
2023/05/10 06:30:36;;;;;;;1.85;1.27;;;;;;;;;;5024803;28;20025;-82
2023/05/10 06:33:02;;;;;;;0.80;0.80;;;;;;;;;;5023211;28;20461;-82
2023/05/10 06:35:33;;;;;;;1.20;1.10;;;;;;;;;;5018472;28;20038;-82
2023/05/10 06:37:59;;;;;;;1.90;1.13;;;;;;;;;;5029317;28;20029;-83
2023/05/10 06:40:25;;;;;;;1.52;1.15;;;;;;;;;;5019574;28;20032;-81
2023/05/10 06:42:51;;;;;;;1.80;1.40;;;;;;;;;;5009061;28;20145;-83
2023/05/10 06:45:17;;;;;;;1.30;0.90;;;;;;;;;;5016285;28;20101;-82
2023/05/10 06:47:43;;;;;;;1.13;0.90;;;;;;;;;;5024681;28;20022;-81
2023/05/10 06:50:11;;;;;;;1.48;1.10;;;;;;;;;;5013019;28;20030;-81
2023/05/10 06:52:37;;;;;;;2.42;1.23;;;;;;;;;;5022938;28;20022;-77
2023/05/10 06:55:03;;;;;;;1.05;0.90;;;;;;;;;;5018622;28;20120;-76
2023/05/10 06:57:29;;;;;;;0.95;0.85;;;;;;;;;;5016215;28;20072;-77
2023/05/10 06:59:58;;;;;;;3.20;1.30;;;;;;;;;;5007390;28;20096;-78
2023/05/10 07:02:24;;;;;;;1.42;1.15;;;;;;;;;;5014700;28;20025;-76
2023/05/10 07:04:53;;;;;;;1.55;1.00;;;;;;;;;;5019131;28;20099;-77
2023/05/10 07:07:20;;;;;;;1.10;1.00;;;;;;;;;;5025988;28;20024;-77
2023/05/10 07:09:46;;;;;;;2.88;1.20;;;;;;;;;;5030538;28;20083;-78
2023/05/10 07:12:12;;;;;;;1.00;0.90;;;;;;;;;;5027619;28;20057;-77
2023/05/10 07:14:38;;;;;;;0.85;0.85;;;;;;;;;;5025775;28;20235;-77
2023/05/10 07:17:04;;;;;;;2.85;1.20;;;;;;;;;;5019734;28;20179;-78
2023/05/10 07:19:30;;;;;;;1.77;0.80;;;;;;;;;;5010167;28;20396;-78
2023/05/10 07:21:56;;;;;;;2.10;1.10;;;;;;;;;;5011272;28;20026;-81
2023/05/10 07:24:22;;;;;;;0.95;0.90;;;;;;;;;;5016177;28;20025;-80
2023/05/10 07:26:48;;;;;;;1.50;1.02;;;;;;;;;;5030047;28;20029;-83
2023/05/10 07:29:14;;;;;;;0.98;0.80;;;;;;;;;;5031609;28;20037;-82
2023/05/10 07:31:42;;;;;;;1.33;1.15;;;;;;;;;;5027603;28;20491;-83
2023/05/10 07:34:08;;;;;;;1.38;0.90;;;;;;;;;;5028426;28;20025;-80
2023/05/10 07:36:34;;;;;;;1.15;0.88;;;;;;;;;;5031095;28;20029;-80
2023/05/10 07:39:00;;;;;;;2.50;1.02;;;;;;;;;;5026237;28;21605;-85
2023/05/10 07:41:27;;;;;;;1.23;1.13;;;;;;;;;;5029311;28;20021;-81
2023/05/10 07:43:53;;;;;;;1.23;1.00;;;;;;;;;;5024330;28;20079;-79
2023/05/10 07:46:19;;;;;;;1.48;0.95;;;;;;;;;;5027580;28;20468;-83
2023/05/10 07:48:45;;;;;;;1.90;1.42;;;;;;;;;;5022984;28;20052;-79
2023/05/10 07:51:12;;;;;;;2.58;0.88;;;;;;;;;;5025186;28;20451;-81
2023/05/10 07:53:38;;;;;;;2.63;1.00;;;;;;;;;;5027016;28;20052;-79
2023/05/10 07:56:25;;;;;;;1.20;1.05;;;;;;;;;;5028622;28;20032;-79
2023/05/10 07:58:50;;;;;;;0.93;0.93;;;;;;;;;;5027781;28;20397;-81
2023/05/10 08:01:17;;;;;;;2.42;0.70;;;;;;;;;;5026587;28;20040;-82
2023/05/10 08:03:42;;;;;;;1.20;0.95;;;;;;;;;;5026579;28;20030;-83
2023/05/10 08:06:08;;;;;;;1.33;0.90;;;;;;;;;;5027141;28;20025;-82
2023/05/10 08:08:34;;;;;;;2.08;0.90;;;;;;;;;;5025549;28;20057;-83
2023/05/10 08:11:01;;;;;;;1.40;0.90;;;;;;;;;;5029586;28;20109;-83
2023/05/10 08:13:26;;;;;;;0.82;0.70;;;;;;;;;;5023347;28;20030;-77
2023/05/10 08:15:53;;;;;;;1.20;0.93;;;;;;;;;;5025475;28;20036;-84
2023/05/10 08:18:19;;;;;;;2.88;1.00;;;;;;;;;;5028389;28;20041;-82
2023/05/10 08:20:45;;;;;;;1.15;0.85;;;;;;;;;;5025444;28;20076;-80
2023/05/10 08:23:13;;;;;;;1.15;0.90;;;;;;;;;;5026575;28;20508;-80
2023/05/10 08:25:39;;;;;;;1.08;0.98;;;;;;;;;;5022329;28;20041;-80
2023/05/10 08:28:05;;;;;;;0.95;0.82;;;;;;;;;;5024960;28;20075;-80
2023/05/10 08:30:31;;;;;;;0.98;0.70;;;;;;;;;;5029826;28;20480;-79
2023/05/10 08:32:56;;;;;;;1.92;0.88;;;;;;;;;;5022312;28;20044;-79
2023/05/10 08:35:22;;;;;;;2.13;1.63;;;;;;;;;;5020699;28;20029;-80
2023/05/10 08:37:48;;;;;;;0.90;0.73;;;;;;;;;;5013651;28;20021;-80
2023/05/10 08:40:15;;;;;;;3.05;0.70;;;;;;;;;;5016158;28;20034;-80
2023/05/10 08:42:42;;;;;;;1.40;1.10;;;;;;;;;;5015195;28;20032;-80
2023/05/10 08:45:41;;;;;;;2.65;0.93;;;;;;;;;;5020736;28;20028;-82
2023/05/10 08:48:08;;;;;;;1.08;0.90;;;;;;;;;;5029360;28;20411;-79
2023/05/10 08:50:36;;;;;;;1.42;0.98;;;;;;;;;;5029608;28;20029;-79
2023/05/10 08:53:04;;;;;;;1.17;0.80;;;;;;;;;;5029041;28;20029;-78
2023/05/10 08:55:30;;;;;;;1.02;0.88;;;;;;;;;;5029100;28;20213;-79
2023/05/10 08:57:56;;;;;;;2.03;0.90;;;;;;;;;;5027914;28;20021;-80
2023/05/10 09:00:23;;;;;;;3.08;1.15;;;;;;;;;;5023016;28;20034;-78
2023/05/10 09:02:50;;;;;;;1.08;0.90;;;;;;;;;;5028923;28;20030;-79
2023/05/10 09:05:24;;;;;;;0.77;0.77;;;;;;;;;;5019749;28;20026;-79
2023/05/10 09:07:50;;;;;;;1.85;1.08;;;;;;;;;;5028624;28;20742;-80
2023/05/10 09:10:16;;;;;;;1.33;1.00;;;;;;;;;;5031310;28;20041;-79
2023/05/10 09:12:43;;;;;;;0.98;0.65;;;;;;;;;;5026920;28;20366;-79
2023/05/10 09:15:10;;;;;;;1.00;0.98;;;;;;;;;;5024284;28;20144;-79
2023/05/10 09:17:40;;;;;;;2.70;0.88;;;;;;;;;;5021430;28;20041;-79
2023/05/10 09:20:06;;;;;;;0.80;0.80;;;;;;;;;;5030130;28;20108;-80
2023/05/10 09:22:32;;;;;;;1.33;1.13;;;;;;;;;;5031038;28;20032;-80
2023/05/10 09:25:39;;;;;;;;;;;;;;;;;;;;;
2023/05/10 09:28:12;;;;;;;0.70;0.70;;;;;;;;;;5022211;28;20037;-81
2023/05/10 09:30:47;;;;;;;1.42;1.20;;;;;;;;;;5030836;28;20037;-79
2023/05/10 09:33:18;;;;;;;1.08;0.80;;;;;;;;;;5030986;28;20053;-80
2023/05/10 09:35:44;;;;;;;;;;;;;;;;;;5025820;28;20041;-80
2023/05/10 09:38:10;;;;;;;2.35;0.90;;;;;;;;;;5026675;28;20019;-80
2023/05/10 09:40:54;;;;;;;1.10;1.00;;;;;;;;;;5025305;28;20021;-80
2023/05/10 09:43:46;;;;;;;1.23;0.90;;;;;;;;;;5025684;28;20029;-79
2023/05/10 09:46:12;;;;;;;1.27;0.90;;;;;;;;;;5022671;28;20048;-78
2023/05/10 09:48:53;;;;;;;0.80;0.80;;;;;;;;;;5025134;28;20116;-80
2023/05/10 09:51:26;;;;;;;1.73;1.10;;;;;;;;;;5020023;28;20034;-78
2023/05/10 09:54:11;;;;;;;0.50;0.50;;;;;;;;;;5020624;28;20030;-82
2023/05/10 09:56:39;;;;;;;0.85;0.73;;;;;;;;;;5022829;28;20025;-79
2023/05/10 09:59:09;;;;;;;0.93;0.80;;;;;;;;;;5029344;28;20030;-80
2023/05/10 10:01:38;;;;;;;1.50;0.85;;;;;;;;;;5025410;28;20034;-80
2023/05/10 10:04:15;;;;;;;2.90;0.80;;;;;;;;;;5021491;28;20021;-80
2023/05/10 10:06:58;;;;;;;0.77;0.70;;;;;;;;;;5031782;28;20033;-80
2023/05/10 10:09:24;;;;;;;1.45;0.90;;;;;;;;;;5028979;28;20603;-79
2023/05/10 10:11:57;;;;;;;1.13;1.00;;;;;;;;;;5030111;28;20041;-79
2023/05/10 10:14:26;;;;;;;1.13;0.90;;;;;;;;;;5022871;28;20033;-79
2023/05/10 10:16:52;;;;;;;0.85;0.82;;;;;;;;;;5028137;28;20046;-80
2023/05/10 10:19:20;;;;;;;1.20;1.10;;;;;;;;;;5029226;28;20022;-80
2023/05/10 10:21:46;;;;;;;1.00;0.90;;;;;;;;;;5035517;28;20468;-80
2023/05/10 10:24:14;;;;;;;0.77;0.77;;;;;;;;;;5023686;28;20028;-80
2023/05/10 10:26:45;;;;;;;1.23;1.10;;;;;;;;;;5023490;28;20559;-80
2023/05/10 10:29:11;;;;;;;1.07;0.93;;;;;;;;;;5027041;28;20025;-79
2023/05/10 10:31:41;;;;;;;1.85;1.38;;;;;;;;;;5033925;28;20020;-79
2023/05/10 10:34:09;;;;;;;1.97;1.30;;;;;;;;;;5030427;28;20082;-80
2023/05/10 10:36:43;;;;;;;2.05;1.10;;;;;;;;;;5023336;28;20025;-79
2023/05/10 10:39:10;;;;;;;2.25;1.10;;;;;;;;;;5026086;28;20034;-79
2023/05/10 10:41:36;;;;;;;2.05;1.20;;;;;;;;;;5030647;28;20099;-80
2023/05/10 10:44:25;;;;;;;1.42;1.05;;;;;;;;;;5022225;28;20108;-81
2023/05/10 10:47:08;;;;;;;2.08;1.08;;;;;;;;;;5036984;28;20439;-79
2023/05/10 10:49:43;;;;;;;1.90;0.90;;;;;;;;;;5027151;28;20053;-80
2023/05/10 10:52:30;;;;;;;1.95;1.02;;;;;;;;;;5025205;28;20024;-79
2023/05/10 10:55:01;;;;;;;1.33;1.08;;;;;;;;;;5024080;28;20030;-79
2023/05/10 10:57:29;;;;;;;2.23;1.23;;;;;;;;;;5025803;28;20113;-80
2023/05/10 11:00:14;;;;;;;1.58;1.02;;;;;;;;;;5031396;28;20112;-79
2023/05/10 11:02:44;;;;;;;2.40;1.13;;;;;;;;;;5025858;28;20099;-79
2023/05/10 11:05:31;;;;;;;1.63;1.10;;;;;;;;;;5025259;28;20046;-79
2023/05/10 11:07:58;;;;;;;2.42;1.23;;;;;;;;;;5023385;28;20124;-80
2023/05/10 11:10:25;;;;;;;1.33;1.10;;;;;;;;;;5031286;28;20120;-80
2023/05/10 11:13:04;;;;;;;2.42;1.10;;;;;;;;;;5035232;28;20029;-82
2023/05/10 11:15:50;;;;;;;2.40;1.20;;;;;;;;;;5035726;28;20097;-82
2023/05/10 11:18:18;;;;;;;0.98;0.80;;;;;;;;;;5021452;28;20073;-80
2023/05/10 11:20:46;;;;;;;2.90;1.23;;;;;;;;;;5039725;28;20125;-80
2023/05/10 11:23:15;;;;;;;1.20;1.10;;;;;;;;;;5025341;28;20057;-79
2023/05/10 11:25:42;;;;;;;1.95;1.17;;;;;;;;;;5029371;28;20155;-79
2023/05/10 11:28:08;;;;;;;4.10;1.45;;;;;;;;;;5036279;28;20093;-80
2023/05/10 11:30:34;;;;;;;2.45;1.27;;;;;;;;;;5043054;28;20033;-81
2023/05/10 11:33:00;;;;;;;2.83;1.70;;;;;;;;;;5021033;28;20022;-81
2023/05/10 11:35:28;;;;;;;9.77;1.42;;;;;;;;;;5020548;28;20030;-81
2023/05/10 11:37:54;;;;;;;2.38;0.93;;;;;;;;;;5019295;28;20113;-80
2023/05/10 11:40:24;;;;;;;1.80;1.20;;;;;;;;;;5030030;28;20385;-80
2023/05/10 11:45:57;;;;;;;1.70;1.38;;;;;;;;;;5026417;28;20083;-80
2023/05/10 11:49:24;;;;;;;2.25;1.30;;;;;;;;;;5026968;28;20029;-82
2023/05/10 11:51:22;;;;;;;1.23;1.13;;;;;;;;;;5028158;28;20041;-83
2023/05/10 11:53:50;;;;;;;2.80;1.60;;;;;;;;;;5006642;28;20025;-82
2023/05/10 11:56:16;;;;;;;1.63;1.15;;;;;;;;;;5015345;28;20045;-83
2023/05/10 11:58:42;;;;;;;2.97;1.70;;;;;;;;;;5010261;28;20033;-83
2023/05/10 12:01:08;;;;;;;2.30;1.40;;;;;;;;;;5022561;28;20034;-84
2023/05/10 12:03:35;;;;;;;1.40;1.30;;;;;;;;;;5010683;28;20028;-84
2023/05/10 12:06:01;;;;;;;1.52;1.38;;;;;;;;;;5009774;28;20120;-83
2023/05/10 12:08:30;;;;;;;1.20;1.10;;;;;;;;;;5010815;28;20033;-85
2023/05/10 12:11:13;;;;;;;1.92;1.30;;;;;;;;;;5032400;28;20491;-83
2023/05/10 12:13:46;;;;;;;2.53;1.20;;;;;;;;;;5010515;28;20053;-85
2023/05/10 12:16:20;;;;;;;1.33;1.20;;;;;;;;;;5013442;28;20673;-83
2023/05/10 12:18:48;;;;;;;1.23;1.08;;;;;;;;;;5029098;28;20233;-82
2023/05/10 12:21:15;;;;;;;3.30;1.20;;;;;;;;;;5030973;28;20025;-82
2023/05/10 12:23:41;;;;;;;1.27;1.17;;;;;;;;;;5018317;28;20032;-81
2023/05/10 12:26:10;;;;;;;1.70;1.27;;;;;;;;;;5009672;28;20018;-82
2023/05/10 12:28:37;;;;;;;2.22;1.00;;;;;;;;;;5019080;28;20029;-82
2023/05/10 12:31:04;;;;;;;1.27;1.08;;;;;;;;;;5029638;28;20091;-82
2023/05/10 12:33:38;;;;;;;1.02;1.00;;;;;;;;;;5029342;28;20033;-82
2023/05/10 12:36:04;;;;;;;1.73;1.25;;;;;;;;;;5029467;28;20029;-83
2023/05/10 12:38:37;;;;;;;1.65;1.05;;;;;;;;;;5028277;28;20045;-83
2023/05/10 12:41:04;;;;;;;1.20;0.90;;;;;;;;;;5008991;28;20021;-84
2023/05/10 12:43:30;;;;;;;1.50;1.40;;;;;;;;;;5009217;28;20097;-82
2023/05/10 12:45:56;;;;;;;2.28;1.13;;;;;;;;;;5009023;28;20048;-83
2023/05/10 12:48:23;;;;;;;1.05;0.93;;;;;;;;;;5009433;28;20026;-82
2023/05/10 12:50:49;;;;;;;1.25;0.95;;;;;;;;;;5019969;28;20071;-81
2023/05/10 12:53:15;;;;;;;1.70;1.15;;;;;;;;;;5009088;28;20233;-81
2023/05/10 12:55:44;;;;;;;1.75;1.20;;;;;;;;;;5017929;28;20026;-82
2023/05/10 12:58:10;;;;;;;1.70;0.98;;;;;;;;;;5026582;28;20395;-84
2023/05/10 13:00:49;;;;;;;1.58;1.13;;;;;;;;;;5029022;28;20963;-83
2023/05/10 13:03:21;;;;;;;1.40;0.98;;;;;;;;;;5044026;22;20045;-83
2023/05/10 13:07:06;;;;;;;1.00;0.90;;;;;;;;;;5029381;28;20037;-83
2023/05/10 13:09:07;;;;;;;2.28;1.20;;;;;;;;;;5019837;28;20033;-83
2023/05/10 13:11:33;;;;;;;1.73;1.10;;;;;;;;;;5042789;28;20076;-80
2023/05/10 13:14:03;;;;;;;1.65;1.10;;;;;;;;;;5032068;28;20033;-82
2023/05/10 13:16:28;;;;;;;1.75;1.08;;;;;;;;;;5026706;28;20512;-79
2023/05/10 13:18:54;;;;;;;1.48;1.27;;;;;;;;;;5025764;28;20073;-75
2023/05/10 13:21:20;;;;;;;1.50;1.30;;;;;;;;;;5027278;28;20587;-78
2023/05/10 13:23:46;;;;;;;0.70;0.70;;;;;;;;;;5027951;28;20468;-79
2023/05/10 13:26:15;;;;;;;1.23;0.93;;;;;;;;;;5027501;28;20033;-87
2023/05/10 13:28:42;;;;;;;1.38;1.05;;;;;;;;;;5029207;28;20025;-84
2023/05/10 13:31:08;;;;;;;1.48;0.98;;;;;;;;;;5027580;28;20085;-84
2023/05/10 13:33:34;;;;;;;0.85;0.80;;;;;;;;;;5028720;28;20544;-85
2023/05/10 13:36:03;;;;;;;0.93;0.85;;;;;;;;;;5037095;28;20042;-82
2023/05/10 13:38:29;;;;;;;0.93;0.80;;;;;;;;;;5027377;28;20030;-81
2023/05/10 13:40:55;;;;;;;1.35;0.90;;;;;;;;;;5025647;28;20040;-85
2023/05/10 13:43:21;;;;;;;1.30;1.10;;;;;;;;;;5023925;28;20044;-79
2023/05/10 13:45:47;;;;;;;5.93;2.17;;;;;;;;;;5035238;28;20021;-76
2023/05/10 13:48:16;;;;;;;1.15;1.02;;;;;;;;;;5025868;28;20029;-77
2023/05/10 13:50:42;;;;;;;1.88;1.35;;;;;;;;;;5026295;28;20032;-77
2023/05/10 13:53:08;;;;;;;23.58;9.98;;;;;;;;;;5026955;28;20032;-77
2023/05/10 13:55:34;;;;;;;23.23;9.20;;;;;;;;;;5032968;28;20037;-76
2023/05/10 13:58:00;;;;;;;14.73;6.25;;;;;;;;;;5027124;28;20517;-76
2023/05/10 14:00:27;;;;;;;20.30;7.75;;;;;;;;;;5027847;28;20037;-76
2023/05/10 14:02:53;;;;;;;11.70;5.88;;;;;;;;;;5027117;28;20029;-77
2023/05/10 14:05:19;;;;;;;15.27;6.95;;;;;;;;;;5020552;28;20017;-81
2023/05/10 14:07:47;;;;;;;13.77;6.97;;;;;;;;;;5037394;28;20578;-78
2023/05/10 14:10:13;;;;;;;15.07;8.23;;;;;;;;;;5000631;28;20117;-78
2023/05/10 14:12:39;;;;;;;20.95;7.97;;;;;;;;;;5022692;28;20029;-78
2023/05/10 14:15:06;;;;;;;18.25;7.45;;;;;;;;;;5023770;28;20022;-77
2023/05/10 14:17:32;;;;;;;15.48;6.95;;;;;;;;;;5033506;28;20058;-79
2023/05/10 14:19:58;;;;;;;14.38;6.18;;;;;;;;;;5025696;28;20030;-78
2023/05/10 14:22:24;;;;;;;8.68;4.68;;;;;;;;;;5038786;28;20044;-78
2023/05/10 14:24:50;;;;;;;7.50;4.72;;;;;;;;;;5030426;28;20108;-79
2023/05/10 14:27:16;;;;;;;10.68;4.15;;;;;;;;;;5028476;28;20026;-79
2023/05/10 14:29:42;;;;;;;12.20;3.95;;;;;;;;;;5033737;28;20021;-79
2023/05/10 14:32:09;;;;;;;9.23;3.40;;;;;;;;;;5039105;28;20040;-79
2023/05/10 14:34:35;;;;;;;5.82;3.42;;;;;;;;;;5031540;28;20031;-81
2023/05/10 14:37:01;;;;;;;6.70;3.40;;;;;;;;;;5034305;28;20434;-78
2023/05/10 14:39:29;;;;;;;6.18;2.42;;;;;;;;;;5027376;28;20072;-79
2023/05/10 14:41:55;;;;;;;4.32;2.42;;;;;;;;;;5031335;28;20116;-78
2023/05/10 14:44:21;;;;;;;2.58;2.03;;;;;;;;;;5030696;28;20032;-79
2023/05/10 14:46:48;;;;;;;3.30;2.00;;;;;;;;;;5030590;28;20064;-79
2023/05/10 14:49:14;;;;;;;3.97;2.20;;;;;;;;;;5020718;28;20060;-78
2023/05/10 14:51:40;;;;;;;3.28;1.70;;;;;;;;;;5036140;28;20079;-79
2023/05/10 14:54:06;;;;;;;3.15;2.13;;;;;;;;;;5032472;28;20033;-78